createdAt,value
2023-03-23T16:00:20.858Z,18.30
2023-03-23T16:02:52.105Z,18.10
2023-03-23T16:05:20.987Z,17.80
2023-03-23T16:07:51.582Z,17.50
2023-03-23T16:10:21.570Z,17.20
2023-03-23T16:12:50.350Z,17.00
2023-03-23T16:15:19.481Z,16.80
2023-03-23T16:17:48.055Z,16.60
2023-03-23T16:20:19.254Z,16.40
2023-03-23T16:22:48.797Z,16.40
2023-03-23T16:25:20.315Z,16.10
2023-03-23T16:27:52.362Z,16.00
2023-03-23T16:30:23.749Z,15.90
2023-03-23T16:32:54.162Z,15.80
2023-03-23T16:35:24.045Z,15.70
2023-03-23T16:38:07.718Z,15.70
2023-03-23T16:40:38.939Z,15.50
2023-03-23T16:43:08.591Z,15.40
2023-03-23T16:45:38.429Z,15.40
2023-03-23T16:48:08.090Z,15.40
2023-03-23T16:50:37.725Z,15.40
2023-03-23T16:53:07.582Z,15.30
2023-03-23T16:55:38.222Z,15.30
2023-03-23T16:58:16.145Z,15.20
2023-03-23T17:00:47.804Z,15.20
2023-03-23T17:03:17.274Z,15.20
2023-03-23T17:05:47.037Z,15.20
2023-03-23T17:08:15.801Z,15.40
2023-03-23T17:10:46.283Z,15.20
2023-03-23T17:13:15.087Z,15.20
2023-03-23T17:15:46.917Z,15.20
2023-03-23T17:18:16.538Z,15.10
2023-03-23T17:20:45.513Z,15.00
2023-03-23T17:23:14.045Z,15.00
2023-03-23T17:25:42.865Z,14.90
2023-03-23T17:28:12.965Z,14.90
2023-03-23T17:30:42.556Z,14.80
2023-03-23T17:33:11.422Z,14.80
2023-03-23T17:35:40.371Z,14.70
2023-03-23T17:38:08.926Z,14.70
2023-03-23T17:40:37.393Z,14.60
2023-03-23T17:43:06.984Z,14.50
2023-03-23T17:45:37.354Z,14.50
2023-03-23T17:48:07.678Z,14.50
2023-03-23T17:50:36.898Z,14.50
2023-03-23T17:53:05.737Z,14.50
2023-03-23T17:55:34.263Z,14.40
2023-03-23T17:58:02.800Z,14.40
2023-03-23T18:00:31.307Z,14.40
2023-03-23T18:03:01.470Z,14.30
2023-03-23T18:05:31.835Z,14.30
2023-03-23T18:08:00.719Z,14.30
2023-03-23T18:10:29.233Z,14.20
2023-03-23T18:12:57.710Z,14.20
2023-03-23T18:15:28.274Z,14.10
2023-03-23T18:17:57.719Z,14.10
2023-03-23T18:20:28.253Z,14.10
2023-03-23T18:22:56.970Z,14.10
2023-03-23T18:25:26.172Z,14.10
2023-03-23T18:27:54.652Z,14.00
2023-03-23T18:30:23.469Z,14.20
2023-03-23T18:32:52.060Z,14.10
2023-03-23T18:35:20.904Z,14.00
2023-03-23T18:37:50.878Z,14.10
2023-03-23T18:40:21.063Z,14.20
2023-03-23T18:42:49.608Z,14.10
2023-03-23T18:45:18.154Z,14.00
2023-03-23T18:47:46.681Z,14.00
2023-03-23T18:50:15.473Z,14.00
2023-03-23T18:52:44.735Z,13.90
2023-03-23T18:55:14.621Z,13.90
2023-03-23T18:57:43.132Z,13.80
2023-03-23T19:00:12.925Z,13.70
2023-03-23T19:02:41.677Z,13.60
2023-03-23T19:05:11.126Z,13.80
2023-03-23T19:07:39.677Z,13.50
2023-03-23T19:10:08.467Z,13.40
2023-03-23T19:12:38.536Z,13.30
2023-03-23T19:15:08.102Z,13.20
2023-03-23T19:17:37.958Z,13.10
2023-03-23T19:20:14.554Z,13.10
2023-03-23T19:22:45.484Z,13.00
2023-03-23T19:25:14.127Z,13.00
2023-03-23T19:28:27.461Z,13.00
2023-03-23T19:30:32.459Z,12.90
2023-03-23T19:33:01.101Z,12.90
2023-03-23T19:35:29.993Z,12.80
2023-03-23T19:37:58.560Z,12.80
2023-03-23T19:40:39.060Z,12.80
2023-03-23T19:43:11.290Z,12.80
2023-03-23T19:45:41.800Z,12.70
2023-03-23T19:48:10.450Z,12.70
2023-03-23T19:50:40.682Z,12.70
2023-03-23T19:53:10.134Z,12.60
2023-03-23T19:55:38.653Z,12.60
2023-03-23T19:58:07.172Z,12.60
2023-03-23T20:00:38.106Z,12.60
2023-03-23T20:03:07.334Z,12.60
2023-03-23T20:05:36.888Z,12.60
2023-03-23T20:08:05.454Z,12.60
2023-03-23T20:10:35.526Z,12.60
2023-03-23T20:13:04.790Z,12.60
2023-03-23T20:15:34.128Z,12.60
2023-03-23T20:18:04.846Z,12.60
2023-03-23T20:20:36.148Z,12.50
2023-03-23T20:23:07.805Z,12.50
2023-03-23T20:25:36.969Z,12.40
2023-03-23T20:28:06.180Z,12.50
2023-03-23T20:30:35.669Z,12.30
2023-03-23T20:33:05.632Z,12.30
2023-03-23T20:35:34.160Z,12.40
2023-03-23T20:38:02.629Z,12.30
2023-03-23T20:40:31.132Z,12.30
2023-03-23T20:43:00.699Z,12.20
2023-03-23T20:45:29.177Z,12.20
2023-03-23T20:47:57.829Z,12.20
2023-03-23T20:50:28.305Z,12.20
2023-03-23T20:52:57.725Z,12.10
2023-03-23T20:55:26.204Z,12.10
2023-03-23T20:57:54.685Z,12.10
2023-03-23T21:00:23.358Z,12.10
2023-03-23T21:02:54.207Z,12.10
2023-03-23T21:05:23.148Z,12.10
2023-03-23T21:07:54.241Z,12.10
2023-03-23T21:10:25.701Z,12.10
2023-03-23T21:12:54.197Z,12.10
2023-03-23T21:15:22.866Z,12.20
2023-03-23T21:17:51.414Z,12.10
2023-03-23T21:20:20.081Z,12.10
2023-03-23T21:22:48.500Z,12.10
2023-03-23T21:25:22.125Z,12.10
2023-03-23T21:28:02.796Z,12.10
2023-03-23T21:30:31.372Z,12.10
2023-03-23T21:32:59.859Z,12.10
2023-03-23T21:35:28.420Z,12.10
2023-03-23T21:37:58.061Z,12.10
2023-03-23T21:40:27.990Z,12.10
2023-03-23T21:42:56.482Z,12.10
2023-03-23T21:45:25.568Z,12.20
2023-03-23T21:47:56.907Z,12.10
2023-03-23T21:50:26.134Z,12.10
2023-03-23T21:52:54.612Z,12.10
2023-03-23T21:55:23.139Z,12.10
2023-03-23T21:57:52.987Z,12.00
2023-03-23T22:00:22.953Z,12.00
2023-03-23T22:02:53.142Z,12.00
2023-03-23T22:05:22.425Z,12.00
2023-03-23T22:07:51.525Z,12.00
2023-03-23T22:10:20.275Z,12.00
2023-03-23T22:12:50.079Z,12.00
2023-03-23T22:15:21.074Z,12.00
2023-03-23T22:17:49.694Z,12.00
2023-03-23T22:20:18.316Z,12.00
2023-03-23T22:22:46.829Z,12.00
2023-03-23T22:25:15.751Z,12.00
2023-03-23T22:27:44.577Z,12.00
2023-03-23T22:30:14.228Z,12.00
2023-03-23T22:32:44.198Z,11.90
2023-03-23T22:35:13.083Z,11.90
2023-03-23T22:37:41.640Z,11.90
2023-03-23T22:40:11.343Z,11.90
2023-03-23T22:42:40.065Z,11.80
2023-03-23T22:45:10.069Z,11.80
2023-03-23T22:47:39.247Z,11.80
2023-03-23T22:50:10.906Z,11.80
2023-03-23T22:52:39.492Z,11.80
2023-03-23T22:55:09.610Z,11.70
2023-03-23T22:57:38.194Z,11.70
2023-03-23T23:00:14.050Z,11.70
2023-03-23T23:02:43.263Z,11.70
2023-03-23T23:05:14.008Z,11.70
2023-03-23T23:07:42.558Z,11.70
2023-03-23T23:10:11.198Z,11.60
2023-03-23T23:12:42.256Z,11.60
2023-03-23T23:15:14.432Z,11.60
2023-03-23T23:17:43.137Z,11.60
2023-03-23T23:20:14.147Z,11.60
2023-03-23T23:22:44.845Z,11.60
2023-03-23T23:25:13.632Z,11.60
2023-03-23T23:27:42.419Z,11.60
2023-03-23T23:30:12.517Z,11.60
2023-03-23T23:32:42.797Z,11.60
2023-03-23T23:35:14.932Z,11.60
2023-03-23T23:37:43.519Z,11.70
2023-03-23T23:40:15.115Z,11.70
2023-03-23T23:42:43.775Z,11.60
2023-03-23T23:45:13.145Z,11.60
2023-03-23T23:47:42.016Z,11.60
2023-03-23T23:50:13.515Z,11.60
2023-03-23T23:52:42.726Z,11.60
2023-03-23T23:55:12.621Z,11.70
2023-03-23T23:57:41.202Z,11.70
